Nearby METAR Reports

 

KSJC - San Jose, California, USA
Distance from station: NØ 14km
Opdateret: 17/12/2018 09:29
Regn, Mist, Overskyet
Regn, Mist, Overskyet
 Vind retning NV
Vind: NV 15 km/h
Temperatur: 11°C
Dugpunkt: 11°C
Fugtighed: 100%
Barometer: 1018.3 hPa
Oversigt: Regn, Mist
Clouds: Overskyet
Visibility: 4 km
Cloud details: Few Clouds 152 m
Mest skyet 518 m
Overskyet 914 m
2018/12/17 08:29 KSJC 170829Z AUTO 32008KT 2 1/2SM RA BR FEW005 BKN017 OVC030 11/11 A3007 RMK AO2 P0017 T01110111
KNUQ - Moffett Nas/Mtn, California, USA
Distance from station: N 14km
Opdateret: 17/12/2018 09:35
Regn, Mist, Overskyet
Regn, Mist, Overskyet
 Vind retning calm
Vind: Vindstille
Temperatur: 12°C
Dugpunkt: 12°C
Fugtighed: 100%
Barometer: 1018.6 hPa
Oversigt: Regn, Mist
Clouds: Overskyet
Visibility: 5 km
Cloud details: Few Clouds 244 m
Overskyet 792 m
2018/12/17 08:35 KNUQ 170835Z 00000KT 3SM RA BR FEW008 OVC026 12/12 A3008 RMK AO2 P0008 T01170117 $
 
KPAO - Palo Alto, California, USA
Distance from station: NNV 23km
Opdateret: 17/12/2018 05:47
NOT Current
Let regn, Overskyet
Let regn, Overskyet
 Vind retning SØ
Vind: SØ 22 km/h
Temperatur: 15°C
Dugpunkt: 13°C
Fugtighed: 88%
Barometer: 1017.3 hPa
Oversigt: Let regn
Clouds: Overskyet
Visibility: 16 km
Cloud details: Few Clouds 457 m
Mest skyet 914 m
Overskyet 3048 m
2018/12/17 04:47 KPAO 170447Z 13012KT 10SM -RA FEW015 BKN030 OVC100 15/13 A3004 RMK LAST
KRHV - San Jose/Reid, California, USA
Distance from station: ØNØ 19km
Opdateret: 17/12/2018 06:50
NOT Current
Mest skyet
Mest skyet
 Vind retning SSØ
Vind: SSØ 24 km/h
Temperatur: 15°C
Dugpunkt: 13°C
Fugtighed: 88%
Barometer: 1016.9 hPa
Clouds: Mest skyet
Visibility: 16 km
Cloud details: Delvist skyet 762 m
Mest skyet 2438 m
2018/12/17 05:50 KRHV 170550Z 15013KT 10SM SCT025 BKN080 15/13 A3003 RMK LAST
 
KOAK - Oakland, California, USA
Distance from station: NNV 50km
Opdateret: 17/12/2018 08:53
Let regn, Mist, Overskyet
Let regn, Mist, Overskyet
 Vind retning NNØ
Vind: NNØ 6 km/h
Temperatur: 12°C
Dugpunkt: 11°C
Fugtighed: 94%
Barometer: 1018.3 hPa
Oversigt: Let regn, Mist
Clouds: Overskyet
Visibility: 8 km
Cloud details: Delvist skyet 549 m
Overskyet 914 m
2018/12/17 07:53 KOAK 170753Z 03003KT 5SM -RA BR SCT018 OVC030 12/11 A3007 RMK AO2 SLP182 P0004 T01170111 401610117
KSQL - San Carlos Airpo, California, USA
Distance from station: NV 34km
Opdateret: 17/12/2018 09:35
Let regn, Overskyet
Let regn, Overskyet
 Vind retning calm
Vind: Vindstille
Temperatur: 12°C
Dugpunkt: 12°C
Fugtighed: 100%
Barometer: 1018.3 hPa
Oversigt: Let regn
Clouds: Overskyet
Visibility: 5 km
Cloud details: Few Clouds 488 m
Mest skyet 823 m
Overskyet 1128 m
2018/12/17 08:35 KSQL 170835Z AUTO 00000KT 3SM -RA FEW016 BKN027 OVC037 12/12 A3007 RMK AO2
 
KSFO - San Francisco, California, USA
Distance from station: NV 49km
Opdateret: 17/12/2018 08:56
Mist, Overskyet
Mist, Overskyet
 Vind retning calm
Vind: Vindstille
Temperatur: 11°C
Dugpunkt: 10°C
Fugtighed: 94%
Barometer: 1017.9 hPa
Oversigt: Mist
Clouds: Overskyet
Visibility: 10 km
Cloud details: Few Clouds 183 m
Delvist skyet 396 m
Overskyet 1158 m
2018/12/17 07:56 KSFO 170756Z 00000KT 6SM BR FEW006 SCT013 OVC038 11/10 A3006 RMK AO2 RAB21E46 SLP179 P0000 T01110100 401610111
KE16 - San Martin, California, USA
Distance from station: ØSØ 43km
Opdateret: 17/12/2018 09:30
Let regn, Overskyet
Let regn, Overskyet
 Vind retning calm
Vind: Vindstille
Temperatur: 12°C
Dugpunkt: 12°C
Fugtighed: 100%
Barometer: 1017.9 hPa
Oversigt: Let regn
Clouds: Overskyet
Visibility: 10 km
Cloud details: Delvist skyet 1219 m
Mest skyet 1524 m
Overskyet 2134 m
2018/12/17 08:30 KE16 170830Z AUTO 00000KT 6SM -RA SCT040 BKN050 OVC070 12/12 A3006 RMK AO2
 
KWVI - Watsonville, California, USA
Distance from station: SSØ 44km
Opdateret: 17/12/2018 09:25
Regn, Overskyet
Regn, Overskyet
 Vind retning calm
Vind: Vindstille
Temperatur: 13°C
Barometer: 1017.6 hPa
Oversigt: Regn
Clouds: Overskyet
Visibility: 6 km
Cloud details: Mest skyet 335 m
Overskyet 914 m
2018/12/17 08:25 KWVI 170825Z AUTO 00000KT 4SM RA BKN011 OVC030 13/ A3005 RMK AO2 P0004 T0128 $
KHAF - Half Moon Bay, California, USA
Distance from station: VNV 50km
Opdateret: 17/12/2018 09:40
Mist, Overskyet
Mist, Overskyet
 Vind retning calm
Vind: Vindstille
Temperatur: 12°C
Dugpunkt: 11°C
Fugtighed: 94%
Barometer: 1018.6 hPa
Oversigt: Mist
Clouds: Overskyet
Visibility: 5 km
Cloud details: Few Clouds 61 m
Mest skyet 518 m
Overskyet 1280 m
2018/12/17 08:40 KHAF 170840Z AUTO 00000KT 3SM BR FEW002 BKN017 OVC042 12/11 A3008 RMK AO2
 
KHWD - Hayward, California, USA
Distance from station: N 44km
Opdateret: 17/12/2018 09:33
Let regn, Mist, Overskyet
Let regn, Mist, Overskyet
 Vind retning NV
Vind: NV 7 km/h
Temperatur: 12°C
Dugpunkt: 11°C
Fugtighed: 94%
Barometer: 1018.3 hPa
Oversigt: Let regn, Mist
Clouds: Overskyet
Visibility: 3 km
Cloud details: Few Clouds 671 m
Mest skyet 853 m
Overskyet 1067 m
2018/12/17 08:33 KHWD 170833Z AUTO 32004KT 2SM -RA BR FEW022 BKN028 OVC035 12/11 A3007 RMK AO2 P0001 T01220106
KLVK - Livermore, California, USA
Distance from station: NNØ 51km
Opdateret: 17/12/2018 09:36
Let regn, Mist, Overskyet
Let regn, Mist, Overskyet
 Vind retning V
Vind: V 7 km/h
Temperatur: 11°C
Dugpunkt: 10°C
Fugtighed: 94%
Barometer: 1017.9 hPa
Oversigt: Let regn, Mist
Clouds: Overskyet
Visibility: 6 km
Cloud details: Few Clouds 427 m
Mest skyet 1463 m
Overskyet 2286 m
2018/12/17 08:36 KLVK 170836Z AUTO 26004KT 4SM -RA BR FEW014 BKN048 OVC075 11/10 A3006 RMK AO2 P0005 T01060100